sensor_id;sensor_type;location;lat;lon;timestamp;pressure;altitude;pressure_sealevel;temperature;humidity
64352;BME280;50680;52.626;-8.668;2023-07-16T00:00:03;100368.44;;;13.89;100.00
64352;BME280;50680;52.626;-8.668;2023-07-16T00:02:31;100363.75;;;14.04;100.00
64352;BME280;50680;52.626;-8.668;2023-07-16T00:04:58;100371.06;;;14.00;100.00
64352;BME280;50680;52.626;-8.668;2023-07-16T00:07:25;100369.03;;;14.04;100.00
64352;BME280;50680;52.626;-8.668;2023-07-16T00:09:53;100369.25;;;14.01;100.00
64352;BME280;50680;52.626;-8.668;2023-07-16T00:12:20;100365.22;;;13.97;100.00
64352;BME280;50680;52.626;-8.668;2023-07-16T00:14:48;100375.63;;;13.87;100.00
64352;BME280;50680;52.626;-8.668;2023-07-16T00:17:15;100367.97;;;13.84;100.00
64352;BME280;50680;52.626;-8.668;2023-07-16T00:19:43;100378.38;;;13.85;100.00
64352;BME280;50680;52.626;-8.668;2023-07-16T00:22:10;100374.78;;;13.86;100.00
64352;BME280;50680;52.626;-8.668;2023-07-16T00:24:37;100379.94;;;13.88;100.00
64352;BME280;50680;52.626;-8.668;2023-07-16T00:27:04;100391.19;;;13.90;100.00
64352;BME280;50680;52.626;-8.668;2023-07-16T00:29:31;100388.44;;;13.91;100.00
64352;BME280;50680;52.626;-8.668;2023-07-16T00:31:58;100391.31;;;13.88;100.00
64352;BME280;50680;52.626;-8.668;2023-07-16T00:34:25;100396.34;;;13.91;100.00
64352;BME280;50680;52.626;-8.668;2023-07-16T00:36:52;100399.00;;;13.91;100.00
64352;BME280;50680;52.626;-8.668;2023-07-16T00:39:19;100402.47;;;13.92;100.00
64352;BME280;50680;52.626;-8.668;2023-07-16T00:41:45;100405.44;;;13.87;100.00
64352;BME280;50680;52.626;-8.668;2023-07-16T00:44:12;100412.53;;;13.87;100.00
64352;BME280;50680;52.626;-8.668;2023-07-16T00:46:39;100417.91;;;13.85;100.00
64352;BME280;50680;52.626;-8.668;2023-07-16T00:49:07;100424.00;;;13.86;100.00
64352;BME280;50680;52.626;-8.668;2023-07-16T00:51:34;100423.28;;;13.84;100.00
64352;BME280;50680;52.626;-8.668;2023-07-16T00:54:01;100426.31;;;13.79;100.00
64352;BME280;50680;52.626;-8.668;2023-07-16T00:56:28;100429.06;;;13.78;100.00
64352;BME280;50680;52.626;-8.668;2023-07-16T00:58:56;100428.19;;;13.77;100.00
64352;BME280;50680;52.626;-8.668;2023-07-16T01:01:23;100431.81;;;13.76;100.00
64352;BME280;50680;52.626;-8.668;2023-07-16T01:03:50;100439.00;;;13.74;100.00
64352;BME280;50680;52.626;-8.668;2023-07-16T01:06:34;100436.25;;;13.76;100.00
64352;BME280;50680;52.626;-8.668;2023-07-16T01:11:36;100445.44;;;13.70;100.00
64352;BME280;50680;52.626;-8.668;2023-07-16T01:14:05;100435.88;;;13.69;100.00
64352;BME280;50680;52.626;-8.668;2023-07-16T01:16:33;100443.19;;;13.77;100.00
64352;BME280;50680;52.626;-8.668;2023-07-16T01:19:01;100445.31;;;13.71;100.00
64352;BME280;50680;52.626;-8.668;2023-07-16T01:25:00;100452.50;;;13.69;100.00
64352;BME280;50680;52.626;-8.668;2023-07-16T01:30:08;100460.06;;;13.74;100.00
64352;BME280;50680;52.626;-8.668;2023-07-16T01:32:39;100453.34;;;13.70;100.00
64352;BME280;50680;52.626;-8.668;2023-07-16T01:35:08;100463.28;;;13.66;100.00
64352;BME280;50680;52.626;-8.668;2023-07-16T01:37:35;100454.88;;;13.61;100.00
64352;BME280;50680;52.626;-8.668;2023-07-16T01:40:02;100464.47;;;13.73;100.00
64352;BME280;50680;52.626;-8.668;2023-07-16T01:42:30;100462.94;;;13.71;100.00
64352;BME280;50680;52.626;-8.668;2023-07-16T01:44:57;100467.22;;;13.72;100.00
64352;BME280;50680;52.626;-8.668;2023-07-16T01:50:02;100472.88;;;13.67;100.00
64352;BME280;50680;52.626;-8.668;2023-07-16T01:52:29;100475.63;;;13.66;100.00
64352;BME280;50680;52.626;-8.668;2023-07-16T01:54:56;100473.69;;;13.68;100.00
64352;BME280;50680;52.626;-8.668;2023-07-16T01:57:23;100476.09;;;13.71;100.00
64352;BME280;50680;52.626;-8.668;2023-07-16T01:59:50;100470.78;;;13.48;100.00
64352;BME280;50680;52.626;-8.668;2023-07-16T02:02:18;100474.66;;;13.67;100.00
64352;BME280;50680;52.626;-8.668;2023-07-16T02:04:45;100471.06;;;13.68;100.00
64352;BME280;50680;52.626;-8.668;2023-07-16T02:07:12;100474.66;;;13.67;100.00
64352;BME280;50680;52.626;-8.668;2023-07-16T02:09:38;100475.50;;;13.67;100.00
64352;BME280;50680;52.626;-8.668;2023-07-16T02:12:07;100471.19;;;13.66;100.00
64352;BME280;50680;52.626;-8.668;2023-07-16T02:14:34;100482.56;;;13.67;100.00
64352;BME280;50680;52.626;-8.668;2023-07-16T02:17:01;100482.56;;;13.67;100.00
64352;BME280;50680;52.626;-8.668;2023-07-16T02:19:27;100478.25;;;13.66;100.00
64352;BME280;50680;52.626;-8.668;2023-07-16T02:21:55;100479.91;;;13.67;100.00
64352;BME280;50680;52.626;-8.668;2023-07-16T02:24:22;100489.50;;;13.68;100.00
64352;BME280;50680;52.626;-8.668;2023-07-16T02:26:49;100486.28;;;13.64;100.00
64352;BME280;50680;52.626;-8.668;2023-07-16T02:29:16;100491.09;;;13.70;100.00
64352;BME280;50680;52.626;-8.668;2023-07-16T02:31:43;100487.72;;;13.68;100.00
64352;BME280;50680;52.626;-8.668;2023-07-16T02:34:12;100492.03;;;13.69;100.00
64352;BME280;50680;52.626;-8.668;2023-07-16T02:36:39;100492.97;;;13.68;100.00
64352;BME280;50680;52.626;-8.668;2023-07-16T02:39:06;100494.66;;;13.69;100.00
64352;BME280;50680;52.626;-8.668;2023-07-16T02:41:33;100501.00;;;13.67;100.00
64352;BME280;50680;52.626;-8.668;2023-07-16T02:44:03;100494.44;;;13.72;100.00
64352;BME280;50680;52.626;-8.668;2023-07-16T02:46:30;100495.50;;;13.70;100.00
64352;BME280;50680;52.626;-8.668;2023-07-16T02:48:57;100492.38;;;13.65;100.00
64352;BME280;50680;52.626;-8.668;2023-07-16T02:51:24;100494.06;;;13.66;100.00
64352;BME280;50680;52.626;-8.668;2023-07-16T02:53:51;100500.66;;;13.60;100.00
64352;BME280;50680;52.626;-8.668;2023-07-16T02:56:18;100497.03;;;13.61;100.00
64352;BME280;50680;52.626;-8.668;2023-07-16T02:58:46;100512.94;;;13.60;100.00
64352;BME280;50680;52.626;-8.668;2023-07-16T03:01:13;100507.69;;;13.60;100.00
64352;BME280;50680;52.626;-8.668;2023-07-16T03:03:40;100513.94;;;13.59;100.00
64352;BME280;50680;52.626;-8.668;2023-07-16T03:06:07;100515.59;;;13.60;100.00
64352;BME280;50680;52.626;-8.668;2023-07-16T03:08:34;100513.31;;;13.55;100.00
64352;BME280;50680;52.626;-8.668;2023-07-16T03:11:01;100520.47;;;13.53;100.00
64352;BME280;50680;52.626;-8.668;2023-07-16T03:13:28;100523.97;;;13.53;100.00
64352;BME280;50680;52.626;-8.668;2023-07-16T03:15:55;100517.97;;;13.51;100.00
64352;BME280;50680;52.626;-8.668;2023-07-16T03:18:28;100517.22;;;13.49;100.00
64352;BME280;50680;52.626;-8.668;2023-07-16T03:20:55;100526.44;;;13.44;100.00
64352;BME280;50680;52.626;-8.668;2023-07-16T03:23:23;100526.31;;;13.45;100.00
64352;BME280;50680;52.626;-8.668;2023-07-16T03:25:51;100539.38;;;13.47;100.00
64352;BME280;50680;52.626;-8.668;2023-07-16T03:28:18;100534.00;;;13.48;100.00
64352;BME280;50680;52.626;-8.668;2023-07-16T03:30:50;100548.63;;;13.52;100.00
64352;BME280;50680;52.626;-8.668;2023-07-16T03:33:18;100544.31;;;13.51;100.00
64352;BME280;50680;52.626;-8.668;2023-07-16T03:35:47;100555.56;;;13.53;100.00
64352;BME280;50680;52.626;-8.668;2023-07-16T03:38:14;100554.59;;;13.54;100.00
64352;BME280;50680;52.626;-8.668;2023-07-16T03:40:46;100549.13;;;13.58;100.00
64352;BME280;50680;52.626;-8.668;2023-07-16T03:43:15;100559.53;;;13.59;100.00
64352;BME280;50680;52.626;-8.668;2023-07-16T03:45:42;100561.69;;;13.54;100.00
64352;BME280;50680;52.626;-8.668;2023-07-16T03:48:10;100569.78;;;13.51;100.00
64352;BME280;50680;52.626;-8.668;2023-07-16T03:50:37;100569.19;;;13.47;100.00
64352;BME280;50680;52.626;-8.668;2023-07-16T03:53:04;100576.16;;;13.48;100.00
64352;BME280;50680;52.626;-8.668;2023-07-16T03:55:31;100566.06;;;13.42;100.00
64352;BME280;50680;52.626;-8.668;2023-07-16T03:57:58;100571.53;;;13.39;100.00
64352;BME280;50680;52.626;-8.668;2023-07-16T04:00:25;100569.03;;;13.38;100.00
64352;BME280;50680;52.626;-8.668;2023-07-16T04:02:52;100573.03;;;13.30;100.00
64352;BME280;50680;52.626;-8.668;2023-07-16T04:05:19;100569.56;;;13.30;100.00
64352;BME280;50680;52.626;-8.668;2023-07-16T04:07:50;100577.38;;;13.31;100.00
64352;BME280;50680;52.626;-8.668;2023-07-16T04:10:17;100579.38;;;13.28;100.00
64352;BME280;50680;52.626;-8.668;2023-07-16T04:12:44;100580.56;;;13.24;100.00
64352;BME280;50680;52.626;-8.668;2023-07-16T04:15:11;100579.06;;;13.20;100.00
64352;BME280;50680;52.626;-8.668;2023-07-16T04:17:38;100582.06;;;13.15;100.00
64352;BME280;50680;52.626;-8.668;2023-07-16T04:20:06;100594.81;;;13.08;100.00
64352;BME280;50680;52.626;-8.668;2023-07-16T04:22:34;100591.06;;;13.00;100.00
64352;BME280;50680;52.626;-8.668;2023-07-16T04:25:02;100584.16;;;12.86;100.00
64352;BME280;50680;52.626;-8.668;2023-07-16T04:27:30;100593.03;;;12.72;100.00
64352;BME280;50680;52.626;-8.668;2023-07-16T04:29:57;100586.28;;;12.68;100.00
64352;BME280;50680;52.626;-8.668;2023-07-16T04:32:24;100590.94;;;12.51;100.00
64352;BME280;50680;52.626;-8.668;2023-07-16T04:34:51;100599.03;;;12.48;100.00
64352;BME280;50680;52.626;-8.668;2023-07-16T04:37:18;100601.25;;;12.41;100.00
64352;BME280;50680;52.626;-8.668;2023-07-16T04:39:45;100607.88;;;12.34;100.00
64352;BME280;50680;52.626;-8.668;2023-07-16T04:42:12;100607.34;;;12.29;100.00
64352;BME280;50680;52.626;-8.668;2023-07-16T04:44:39;100617.22;;;12.26;100.00
64352;BME280;50680;52.626;-8.668;2023-07-16T04:47:06;100613.25;;;12.20;100.00
64352;BME280;50680;52.626;-8.668;2023-07-16T04:49:35;100618.47;;;11.94;100.00
64352;BME280;50680;52.626;-8.668;2023-07-16T04:52:03;100621.91;;;11.95;100.00
64352;BME280;50680;52.626;-8.668;2023-07-16T04:54:35;100624.28;;;11.85;100.00
64352;BME280;50680;52.626;-8.668;2023-07-16T04:57:05;100627.84;;;11.84;100.00
64352;BME280;50680;52.626;-8.668;2023-07-16T04:59:32;100633.94;;;11.84;100.00
64352;BME280;50680;52.626;-8.668;2023-07-16T05:01:59;100641.13;;;11.95;100.00
64352;BME280;50680;52.626;-8.668;2023-07-16T05:04:26;100644.78;;;12.33;100.00
64352;BME280;50680;52.626;-8.668;2023-07-16T05:06:54;100637.41;;;12.38;100.00
64352;BME280;50680;52.626;-8.668;2023-07-16T05:09:21;100651.94;;;12.44;100.00
64352;BME280;50680;52.626;-8.668;2023-07-16T05:11:48;100651.19;;;12.41;100.00
64352;BME280;50680;52.626;-8.668;2023-07-16T05:14:15;100651.84;;;12.58;100.00
64352;BME280;50680;52.626;-8.668;2023-07-16T05:16:42;100651.41;;;12.64;100.00
64352;BME280;50680;52.626;-8.668;2023-07-16T05:19:09;100666.88;;;12.69;100.00
64352;BME280;50680;52.626;-8.668;2023-07-16T05:21:37;100654.47;;;12.58;100.00
64352;BME280;50680;52.626;-8.668;2023-07-16T05:24:04;100660.31;;;12.87;100.00
64352;BME280;50680;52.626;-8.668;2023-07-16T05:26:31;100661.34;;;13.10;100.00
64352;BME280;50680;52.626;-8.668;2023-07-16T05:28:59;100665.38;;;13.03;100.00
64352;BME280;50680;52.626;-8.668;2023-07-16T05:31:26;100663.47;;;13.05;100.00
64352;BME280;50680;52.626;-8.668;2023-07-16T05:33:53;100653.66;;;13.07;100.00
64352;BME280;50680;52.626;-8.668;2023-07-16T05:36:20;100663.66;;;13.15;100.00
64352;BME280;50680;52.626;-8.668;2023-07-16T05:38:47;100662.81;;;13.14;100.00
64352;BME280;50680;52.626;-8.668;2023-07-16T05:41:14;100669.56;;;13.19;100.00
64352;BME280;50680;52.626;-8.668;2023-07-16T05:43:41;100677.13;;;13.36;100.00
64352;BME280;50680;52.626;-8.668;2023-07-16T05:46:08;100673.19;;;13.42;100.00
64352;BME280;50680;52.626;-8.668;2023-07-16T05:48:35;100674.50;;;13.36;100.00
64352;BME280;50680;52.626;-8.668;2023-07-16T05:51:02;100683.13;;;13.38;100.00
64352;BME280;50680;52.626;-8.668;2023-07-16T05:53:29;100677.13;;;13.36;100.00
64352;BME280;50680;52.626;-8.668;2023-07-16T05:55:56;100678.88;;;13.48;100.00
64352;BME280;50680;52.626;-8.668;2023-07-16T05:58:23;100684.44;;;13.57;100.00
64352;BME280;50680;52.626;-8.668;2023-07-16T06:00:50;100680.09;;;13.56;100.00
64352;BME280;50680;52.626;-8.668;2023-07-16T06:03:17;100674.59;;;13.34;100.00
64352;BME280;50680;52.626;-8.668;2023-07-16T06:05:45;100685.97;;;13.35;100.00
64352;BME280;50680;52.626;-8.668;2023-07-16T06:08:12;100682.06;;;13.28;100.00
64352;BME280;50680;52.626;-8.668;2023-07-16T06:10:39;100686.50;;;13.27;100.00
64352;BME280;50680;52.626;-8.668;2023-07-16T06:13:06;100678.88;;;13.35;100.00
64352;BME280;50680;52.626;-8.668;2023-07-16T06:15:33;100686.25;;;13.30;100.00
64352;BME280;50680;52.626;-8.668;2023-07-16T06:18:00;100683.84;;;13.40;100.00
64352;BME280;50680;52.626;-8.668;2023-07-16T06:20:27;100695.94;;;13.30;100.00
64352;BME280;50680;52.626;-8.668;2023-07-16T06:22:55;100690.69;;;13.30;100.00
64352;BME280;50680;52.626;-8.668;2023-07-16T06:25:22;100696.91;;;13.42;100.00
64352;BME280;50680;52.626;-8.668;2023-07-16T06:27:49;100700.47;;;13.41;100.00
64352;BME280;50680;52.626;-8.668;2023-07-16T06:30:16;100702.19;;;13.16;100.00
64352;BME280;50680;52.626;-8.668;2023-07-16T06:32:43;100696.41;;;13.11;100.00
64352;BME280;50680;52.626;-8.668;2023-07-16T06:35:10;100698.75;;;12.90;100.00
64352;BME280;50680;52.626;-8.668;2023-07-16T06:37:37;100689.16;;;12.89;100.00
64352;BME280;50680;52.626;-8.668;2023-07-16T06:40:05;100692.75;;;12.88;100.00
64352;BME280;50680;52.626;-8.668;2023-07-16T06:42:32;100698.84;;;12.88;100.00
64352;BME280;50680;52.626;-8.668;2023-07-16T06:44:59;100699.69;;;12.89;100.00
64352;BME280;50680;52.626;-8.668;2023-07-16T06:47:26;100701.59;;;12.87;100.00
64352;BME280;50680;52.626;-8.668;2023-07-16T06:49:53;100701.69;;;12.85;100.00
64352;BME280;50680;52.626;-8.668;2023-07-16T06:52:21;100698.97;;;12.87;100.00
64352;BME280;50680;52.626;-8.668;2023-07-16T06:54:48;100707.50;;;13.03;100.00
64352;BME280;50680;52.626;-8.668;2023-07-16T06:57:15;100705.13;;;13.11;100.00
64352;BME280;50680;52.626;-8.668;2023-07-16T06:59:42;100708.06;;;13.20;100.00
64352;BME280;50680;52.626;-8.668;2023-07-16T07:02:10;100711.38;;;13.10;100.00
64352;BME280;50680;52.626;-8.668;2023-07-16T07:04:37;100711.56;;;13.33;100.00
64352;BME280;50680;52.626;-8.668;2023-07-16T07:07:04;100718.91;;;13.28;100.00
64352;BME280;50680;52.626;-8.668;2023-07-16T07:09:31;100711.88;;;13.41;100.00
64352;BME280;50680;52.626;-8.668;2023-07-16T07:11:58;100725.00;;;13.54;100.00
64352;BME280;50680;52.626;-8.668;2023-07-16T07:14:25;100726.75;;;13.66;100.00
64352;BME280;50680;52.626;-8.668;2023-07-16T07:16:52;100742.28;;;13.82;100.00
64352;BME280;50680;52.626;-8.668;2023-07-16T07:19:19;100736.75;;;13.98;100.00
64352;BME280;50680;52.626;-8.668;2023-07-16T07:21:46;100741.34;;;14.07;100.00
64352;BME280;50680;52.626;-8.668;2023-07-16T07:24:13;100743.63;;;14.12;100.00
64352;BME280;50680;52.626;-8.668;2023-07-16T07:26:40;100740.53;;;14.18;100.00
64352;BME280;50680;52.626;-8.668;2023-07-16T07:29:07;100745.16;;;14.27;100.00
64352;BME280;50680;52.626;-8.668;2023-07-16T07:31:34;100752.34;;;14.37;100.00
64352;BME280;50680;52.626;-8.668;2023-07-16T07:34:01;100750.59;;;14.48;100.00
64352;BME280;50680;52.626;-8.668;2023-07-16T07:36:29;100759.16;;;14.63;100.00
64352;BME280;50680;52.626;-8.668;2023-07-16T07:38:56;100753.09;;;14.85;100.00
64352;BME280;50680;52.626;-8.668;2023-07-16T07:41:23;100762.13;;;15.06;100.00
64352;BME280;50680;52.626;-8.668;2023-07-16T07:43:50;100769.09;;;15.18;100.00
64352;BME280;50680;52.626;-8.668;2023-07-16T07:46:17;100768.97;;;15.31;100.00
64352;BME280;50680;52.626;-8.668;2023-07-16T07:48:44;100770.16;;;15.38;100.00
64352;BME280;50680;52.626;-8.668;2023-07-16T07:51:11;100767.28;;;15.52;100.00
64352;BME280;50680;52.626;-8.668;2023-07-16T07:53:38;100776.13;;;15.74;100.00
64352;BME280;50680;52.626;-8.668;2023-07-16T07:56:05;100774.97;;;16.43;100.00
64352;BME280;50680;52.626;-8.668;2023-07-16T07:58:32;100779.09;;;17.20;100.00
64352;BME280;50680;52.626;-8.668;2023-07-16T08:01:06;100777.50;;;17.79;100.00
64352;BME280;50680;52.626;-8.668;2023-07-16T08:03:34;100767.66;;;18.10;100.00
64352;BME280;50680;52.626;-8.668;2023-07-16T08:06:02;100771.13;;;18.30;100.00
64352;BME280;50680;52.626;-8.668;2023-07-16T08:08:29;100766.81;;;18.29;100.00
64352;BME280;50680;52.626;-8.668;2023-07-16T08:10:56;100766.09;;;18.27;100.00
64352;BME280;50680;52.626;-8.668;2023-07-16T08:13:23;100768.88;;;18.65;100.00
64352;BME280;50680;52.626;-8.668;2023-07-16T08:15:50;100768.88;;;19.22;100.00
64352;BME280;50680;52.626;-8.668;2023-07-16T08:18:17;100769.59;;;19.79;100.00
64352;BME280;50680;52.626;-8.668;2023-07-16T08:20:44;100752.66;;;20.16;100.00
64352;BME280;50680;52.626;-8.668;2023-07-16T08:23:13;100760.03;;;20.04;100.00
64352;BME280;50680;52.626;-8.668;2023-07-16T08:25:40;100760.97;;;19.40;100.00
64352;BME280;50680;52.626;-8.668;2023-07-16T08:28:07;100752.66;;;18.77;100.00
64352;BME280;50680;52.626;-8.668;2023-07-16T08:30:34;100756.72;;;18.13;100.00
64352;BME280;50680;52.626;-8.668;2023-07-16T08:33:01;100759.63;;;17.81;100.00
64352;BME280;50680;52.626;-8.668;2023-07-16T08:35:29;100763.59;;;18.35;100.00
64352;BME280;50680;52.626;-8.668;2023-07-16T08:37:56;100762.25;;;18.98;100.00
64352;BME280;50680;52.626;-8.668;2023-07-16T08:40:23;100759.97;;;19.41;100.00
64352;BME280;50680;52.626;-8.668;2023-07-16T08:42:51;100765.78;;;19.54;100.00
64352;BME280;50680;52.626;-8.668;2023-07-16T08:45:19;100767.31;;;19.57;100.00
64352;BME280;50680;52.626;-8.668;2023-07-16T08:47:49;100760.34;;;19.28;100.00
64352;BME280;50680;52.626;-8.668;2023-07-16T08:50:16;100765.03;;;19.34;100.00
64352;BME280;50680;52.626;-8.668;2023-07-16T08:52:44;100765.13;;;19.80;100.00
64352;BME280;50680;52.626;-8.668;2023-07-16T08:55:11;100764.31;;;20.33;100.00
64352;BME280;50680;52.626;-8.668;2023-07-16T08:57:39;100760.09;;;20.66;100.00
64352;BME280;50680;52.626;-8.668;2023-07-16T09:00:07;100758.38;;;20.83;100.00
64352;BME280;50680;52.626;-8.668;2023-07-16T09:02:35;100757.31;;;21.02;100.00
64352;BME280;50680;52.626;-8.668;2023-07-16T09:05:04;100765.38;;;21.19;100.00
64352;BME280;50680;52.626;-8.668;2023-07-16T09:07:31;100764.06;;;21.57;100.00
64352;BME280;50680;52.626;-8.668;2023-07-16T09:09:59;100772.13;;;21.74;100.00
64352;BME280;50680;52.626;-8.668;2023-07-16T09:12:27;100780.31;;;21.89;100.00
64352;BME280;50680;52.626;-8.668;2023-07-16T09:14:56;100777.91;;;22.28;100.00
64352;BME280;50680;52.626;-8.668;2023-07-16T09:17:24;100780.41;;;22.71;100.00
64352;BME280;50680;52.626;-8.668;2023-07-16T09:19:52;100770.69;;;22.21;100.00
64352;BME280;50680;52.626;-8.668;2023-07-16T09:22:20;100768.91;;;22.29;100.00
64352;BME280;50680;52.626;-8.668;2023-07-16T09:24:48;100767.66;;;21.91;100.00
64352;BME280;50680;52.626;-8.668;2023-07-16T09:27:15;100773.09;;;21.65;100.00
64352;BME280;50680;52.626;-8.668;2023-07-16T09:29:42;100775.47;;;21.41;100.00
64352;BME280;50680;52.626;-8.668;2023-07-16T09:32:09;100771.72;;;21.18;100.00
64352;BME280;50680;52.626;-8.668;2023-07-16T09:34:36;100779.94;;;20.54;100.00
64352;BME280;50680;52.626;-8.668;2023-07-16T09:37:04;100799.13;;;20.04;100.00
64352;BME280;50680;52.626;-8.668;2023-07-16T09:39:35;100800.59;;;19.33;100.00
64352;BME280;50680;52.626;-8.668;2023-07-16T09:42:03;100802.00;;;19.27;100.00
64352;BME280;50680;52.626;-8.668;2023-07-16T09:44:30;100799.31;;;18.70;100.00
64352;BME280;50680;52.626;-8.668;2023-07-16T09:46:58;100808.41;;;18.97;100.00
64352;BME280;50680;52.626;-8.668;2023-07-16T09:49:28;100809.66;;;18.93;100.00
64352;BME280;50680;52.626;-8.668;2023-07-16T09:51:56;100811.66;;;19.28;100.00
64352;BME280;50680;52.626;-8.668;2023-07-16T09:54:25;100808.19;;;19.28;100.00
64352;BME280;50680;52.626;-8.668;2023-07-16T09:56:58;100814.66;;;19.15;100.00
64352;BME280;50680;52.626;-8.668;2023-07-16T09:59:31;100822.22;;;19.10;100.00
64352;BME280;50680;52.626;-8.668;2023-07-16T10:02:02;100821.88;;;19.33;100.00
64352;BME280;50680;52.626;-8.668;2023-07-16T10:04:38;100823.22;;;19.47;100.00
64352;BME280;50680;52.626;-8.668;2023-07-16T10:07:20;100826.50;;;19.59;100.00
64352;BME280;50680;52.626;-8.668;2023-07-16T10:09:53;100825.59;;;19.78;100.00
64352;BME280;50680;52.626;-8.668;2023-07-16T10:12:24;100826.78;;;19.93;100.00
64352;BME280;50680;52.626;-8.668;2023-07-16T10:14:55;100831.66;;;19.98;100.00
64352;BME280;50680;52.626;-8.668;2023-07-16T10:17:26;100825.13;;;19.92;100.00
64352;BME280;50680;52.626;-8.668;2023-07-16T10:20:06;100824.81;;;19.95;100.00
64352;BME280;50680;52.626;-8.668;2023-07-16T10:22:42;100827.94;;;20.08;100.00
64352;BME280;50680;52.626;-8.668;2023-07-16T10:25:21;100827.25;;;20.24;100.00
64352;BME280;50680;52.626;-8.668;2023-07-16T10:27:51;100831.59;;;20.61;100.00
64352;BME280;50680;52.626;-8.668;2023-07-16T10:30:18;100816.19;;;20.91;100.00
64352;BME280;50680;52.626;-8.668;2023-07-16T10:32:46;100825.44;;;21.31;100.00
64352;BME280;50680;52.626;-8.668;2023-07-16T10:35:14;100825.13;;;21.34;100.00
64352;BME280;50680;52.626;-8.668;2023-07-16T10:37:41;100824.84;;;21.80;100.00
64352;BME280;50680;52.626;-8.668;2023-07-16T10:40:12;100831.19;;;21.79;100.00
64352;BME280;50680;52.626;-8.668;2023-07-16T10:42:41;100821.41;;;21.96;100.00
64352;BME280;50680;52.626;-8.668;2023-07-16T10:45:10;100816.28;;;21.60;100.00
64352;BME280;50680;52.626;-8.668;2023-07-16T10:47:38;100810.84;;;21.86;100.00
64352;BME280;50680;52.626;-8.668;2023-07-16T10:50:09;100817.97;;;21.69;100.00
64352;BME280;50680;52.626;-8.668;2023-07-16T10:52:36;100807.56;;;21.23;100.00
64352;BME280;50680;52.626;-8.668;2023-07-16T10:55:04;100809.25;;;20.98;100.00
64352;BME280;50680;52.626;-8.668;2023-07-16T10:57:31;100811.28;;;20.60;100.00
64352;BME280;50680;52.626;-8.668;2023-07-16T10:59:59;100821.56;;;20.37;100.00
64352;BME280;50680;52.626;-8.668;2023-07-16T11:02:27;100831.75;;;20.24;100.00
64352;BME280;50680;52.626;-8.668;2023-07-16T11:04:54;100816.84;;;20.13;100.00
64352;BME280;50680;52.626;-8.668;2023-07-16T11:07:21;100829.47;;;20.29;100.00
64352;BME280;50680;52.626;-8.668;2023-07-16T11:09:53;100829.94;;;20.78;100.00
64352;BME280;50680;52.626;-8.668;2023-07-16T11:12:22;100820.84;;;20.89;100.00
64352;BME280;50680;52.626;-8.668;2023-07-16T11:14:54;100814.38;;;21.18;100.00
64352;BME280;50680;52.626;-8.668;2023-07-16T11:17:23;100816.31;;;21.68;100.00
64352;BME280;50680;52.626;-8.668;2023-07-16T11:19:52;100809.34;;;21.92;100.00
64352;BME280;50680;52.626;-8.668;2023-07-16T11:22:19;100818.47;;;22.40;100.00
64352;BME280;50680;52.626;-8.668;2023-07-16T11:24:51;100830.38;;;21.87;100.00
64352;BME280;50680;52.626;-8.668;2023-07-16T11:27:21;100828.03;;;20.71;100.00
64352;BME280;50680;52.626;-8.668;2023-07-16T11:32:41;100839.44;;;17.37;100.00
64352;BME280;50680;52.626;-8.668;2023-07-16T11:35:16;100839.09;;;17.00;100.00
64352;BME280;50680;52.626;-8.668;2023-07-16T11:37:44;100854.38;;;16.75;100.00
64352;BME280;50680;52.626;-8.668;2023-07-16T11:40:17;100855.09;;;16.45;100.00
64352;BME280;50680;52.626;-8.668;2023-07-16T11:42:45;100863.25;;;16.53;100.00
64352;BME280;50680;52.626;-8.668;2023-07-16T11:45:20;100849.31;;;16.51;100.00
64352;BME280;50680;52.626;-8.668;2023-07-16T11:47:47;100862.31;;;16.43;100.00
64352;BME280;50680;52.626;-8.668;2023-07-16T11:50:14;100877.09;;;16.78;100.00
64352;BME280;50680;52.626;-8.668;2023-07-16T11:52:42;100873.63;;;16.77;100.00
64352;BME280;50680;52.626;-8.668;2023-07-16T11:55:09;100868.69;;;16.72;100.00
64352;BME280;50680;52.626;-8.668;2023-07-16T11:57:36;100865.19;;;16.51;100.00
64352;BME280;50680;52.626;-8.668;2023-07-16T12:00:03;100881.47;;;16.67;100.00
64352;BME280;50680;52.626;-8.668;2023-07-16T12:02:31;100869.16;;;16.45;100.00
64352;BME280;50680;52.626;-8.668;2023-07-16T12:04:59;100872.47;;;16.59;100.00
64352;BME280;50680;52.626;-8.668;2023-07-16T12:07:33;100873.66;;;16.66;100.00
64352;BME280;50680;52.626;-8.668;2023-07-16T12:10:02;100872.38;;;17.14;100.00
64352;BME280;50680;52.626;-8.668;2023-07-16T12:12:30;100878.53;;;17.76;100.00
64352;BME280;50680;52.626;-8.668;2023-07-16T12:14:57;100886.59;;;17.95;100.00
64352;BME280;50680;52.626;-8.668;2023-07-16T12:17:24;100877.00;;;18.14;100.00
64352;BME280;50680;52.626;-8.668;2023-07-16T12:19:51;100876.50;;;18.59;100.00
64352;BME280;50680;52.626;-8.668;2023-07-16T12:22:18;100859.16;;;18.84;100.00
64352;BME280;50680;52.626;-8.668;2023-07-16T12:24:46;100872.81;;;19.38;100.00
64352;BME280;50680;52.626;-8.668;2023-07-16T12:27:14;100871.22;;;19.45;100.00
64352;BME280;50680;52.626;-8.668;2023-07-16T12:29:41;100873.88;;;19.45;100.00
64352;BME280;50680;52.626;-8.668;2023-07-16T12:32:08;100867.97;;;19.14;100.00
64352;BME280;50680;52.626;-8.668;2023-07-16T12:34:35;100866.44;;;18.63;100.00
64352;BME280;50680;52.626;-8.668;2023-07-16T12:37:03;100866.84;;;18.38;100.00
64352;BME280;50680;52.626;-8.668;2023-07-16T12:39:30;100872.56;;;18.24;100.00
64352;BME280;50680;52.626;-8.668;2023-07-16T12:41:57;100877.00;;;18.14;100.00
64352;BME280;50680;52.626;-8.668;2023-07-16T12:44:24;100870.56;;;18.07;100.00
64352;BME280;50680;52.626;-8.668;2023-07-16T12:46:51;100878.16;;;18.40;100.00